sensor_id;sensor_type;location;lat;lon;timestamp;P1;durP1;ratioP1;P2;durP2;ratioP2
24619;SDS011;12763;55.802;37.404;2022-07-06T00:00:11;21.20;;;16.65;;
24619;SDS011;12763;55.802;37.404;2022-07-06T00:02:37;19.55;;;15.48;;
24619;SDS011;12763;55.802;37.404;2022-07-06T00:07:56;22.65;;;16.92;;
24619;SDS011;12763;55.802;37.404;2022-07-06T00:10:22;22.88;;;17.52;;
24619;SDS011;12763;55.802;37.404;2022-07-06T00:12:48;25.67;;;18.00;;
24619;SDS011;12763;55.802;37.404;2022-07-06T00:15:51;28.08;;;20.60;;
24619;SDS011;12763;55.802;37.404;2022-07-06T00:18:17;24.00;;;18.98;;
24619;SDS011;12763;55.802;37.404;2022-07-06T00:23:58;28.90;;;18.50;;
24619;SDS011;12763;55.802;37.404;2022-07-06T00:26:30;30.67;;;21.23;;
24619;SDS011;12763;55.802;37.404;2022-07-06T00:29:02;30.13;;;19.60;;
24619;SDS011;12763;55.802;37.404;2022-07-06T00:31:46;25.27;;;18.63;;
24619;SDS011;12763;55.802;37.404;2022-07-06T00:37:44;24.67;;;19.73;;
24619;SDS011;12763;55.802;37.404;2022-07-06T00:40:16;27.92;;;19.50;;
24619;SDS011;12763;55.802;37.404;2022-07-06T00:42:52;28.48;;;17.92;;
24619;SDS011;12763;55.802;37.404;2022-07-06T00:45:33;26.02;;;19.00;;
24619;SDS011;12763;55.802;37.404;2022-07-06T00:51:05;27.67;;;20.17;;
24619;SDS011;12763;55.802;37.404;2022-07-06T00:53:49;27.33;;;21.23;;
24619;SDS011;12763;55.802;37.404;2022-07-06T00:56:16;33.63;;;21.42;;
24619;SDS011;12763;55.802;37.404;2022-07-06T00:58:42;28.70;;;20.58;;
24619;SDS011;12763;55.802;37.404;2022-07-06T01:02:02;31.63;;;20.52;;
24619;SDS011;12763;55.802;37.404;2022-07-06T01:04:28;33.25;;;23.65;;
24619;SDS011;12763;55.802;37.404;2022-07-06T01:06:54;29.13;;;20.42;;
24619;SDS011;12763;55.802;37.404;2022-07-06T01:09:28;24.95;;;18.58;;
24619;SDS011;12763;55.802;37.404;2022-07-06T01:11:55;29.33;;;20.63;;
24619;SDS011;12763;55.802;37.404;2022-07-06T01:14:21;28.05;;;20.65;;
24619;SDS011;12763;55.802;37.404;2022-07-06T01:17:13;32.85;;;23.42;;
24619;SDS011;12763;55.802;37.404;2022-07-06T01:20:41;32.13;;;23.08;;
24619;SDS011;12763;55.802;37.404;2022-07-06T01:26:18;32.50;;;21.88;;
24619;SDS011;12763;55.802;37.404;2022-07-06T01:28:51;29.17;;;21.50;;
24619;SDS011;12763;55.802;37.404;2022-07-06T01:34:52;38.63;;;22.15;;
24619;SDS011;12763;55.802;37.404;2022-07-06T01:39:46;32.75;;;23.05;;
24619;SDS011;12763;55.802;37.404;2022-07-06T01:42:24;29.42;;;21.75;;
24619;SDS011;12763;55.802;37.404;2022-07-06T01:44:50;31.77;;;22.45;;
24619;SDS011;12763;55.802;37.404;2022-07-06T01:47:16;29.48;;;22.63;;
24619;SDS011;12763;55.802;37.404;2022-07-06T01:49:42;27.38;;;22.13;;
24619;SDS011;12763;55.802;37.404;2022-07-06T01:52:14;34.90;;;24.15;;
24619;SDS011;12763;55.802;37.404;2022-07-06T01:54:57;37.05;;;24.77;;
24619;SDS011;12763;55.802;37.404;2022-07-06T01:57:24;30.75;;;21.73;;
24619;SDS011;12763;55.802;37.404;2022-07-06T01:59:50;34.35;;;25.60;;
24619;SDS011;12763;55.802;37.404;2022-07-06T02:02:30;31.77;;;22.42;;
24619;SDS011;12763;55.802;37.404;2022-07-06T02:05:14;29.63;;;22.90;;
24619;SDS011;12763;55.802;37.404;2022-07-06T02:07:46;28.10;;;22.03;;
24619;SDS011;12763;55.802;37.404;2022-07-06T02:10:13;29.05;;;21.92;;
24619;SDS011;12763;55.802;37.404;2022-07-06T02:15:46;24.65;;;18.83;;
24619;SDS011;12763;55.802;37.404;2022-07-06T02:21:15;35.15;;;21.80;;
24619;SDS011;12763;55.802;37.404;2022-07-06T02:23:54;29.20;;;20.90;;
24619;SDS011;12763;55.802;37.404;2022-07-06T02:26:32;28.67;;;20.45;;
24619;SDS011;12763;55.802;37.404;2022-07-06T02:29:04;26.55;;;19.52;;
24619;SDS011;12763;55.802;37.404;2022-07-06T02:31:37;26.70;;;19.52;;
24619;SDS011;12763;55.802;37.404;2022-07-06T02:34:10;26.58;;;20.10;;
24619;SDS011;12763;55.802;37.404;2022-07-06T02:39:31;23.90;;;19.23;;
24619;SDS011;12763;55.802;37.404;2022-07-06T02:42:03;27.95;;;20.35;;
24619;SDS011;12763;55.802;37.404;2022-07-06T02:44:29;28.02;;;20.23;;
24619;SDS011;12763;55.802;37.404;2022-07-06T02:47:01;29.08;;;21.98;;
24619;SDS011;12763;55.802;37.404;2022-07-06T02:49:27;33.67;;;22.95;;
24619;SDS011;12763;55.802;37.404;2022-07-06T02:52:00;34.08;;;22.48;;
24619;SDS011;12763;55.802;37.404;2022-07-06T02:54:33;26.10;;;19.15;;
24619;SDS011;12763;55.802;37.404;2022-07-06T02:57:08;33.20;;;22.80;;
24619;SDS011;12763;55.802;37.404;2022-07-06T02:59:40;29.92;;;21.88;;
24619;SDS011;12763;55.802;37.404;2022-07-06T03:02:12;29.35;;;20.52;;
24619;SDS011;12763;55.802;37.404;2022-07-06T03:07:28;29.30;;;21.13;;
24619;SDS011;12763;55.802;37.404;2022-07-06T03:12:45;32.63;;;21.42;;
24619;SDS011;12763;55.802;37.404;2022-07-06T03:15:23;33.05;;;21.80;;
24619;SDS011;12763;55.802;37.404;2022-07-06T03:17:49;30.23;;;21.35;;
24619;SDS011;12763;55.802;37.404;2022-07-06T03:20:16;29.25;;;19.77;;
24619;SDS011;12763;55.802;37.404;2022-07-06T03:23:00;30.00;;;19.73;;
24619;SDS011;12763;55.802;37.404;2022-07-06T03:25:39;24.30;;;17.50;;
24619;SDS011;12763;55.802;37.404;2022-07-06T03:28:11;29.50;;;21.98;;
24619;SDS011;12763;55.802;37.404;2022-07-06T03:30:43;32.67;;;23.40;;
24619;SDS011;12763;55.802;37.404;2022-07-06T03:33:15;27.63;;;20.52;;
24619;SDS011;12763;55.802;37.404;2022-07-06T03:35:57;25.98;;;20.48;;
24619;SDS011;12763;55.802;37.404;2022-07-06T03:38:23;28.63;;;20.65;;
24619;SDS011;12763;55.802;37.404;2022-07-06T03:40:59;26.33;;;19.60;;
24619;SDS011;12763;55.802;37.404;2022-07-06T03:43:31;28.88;;;21.27;;
24619;SDS011;12763;55.802;37.404;2022-07-06T03:51:06;30.42;;;21.63;;
24619;SDS011;12763;55.802;37.404;2022-07-06T03:59:30;29.45;;;19.35;;
24619;SDS011;12763;55.802;37.404;2022-07-06T04:01:56;28.23;;;19.85;;
24619;SDS011;12763;55.802;37.404;2022-07-06T04:04:22;27.90;;;21.35;;
24619;SDS011;12763;55.802;37.404;2022-07-06T04:07:06;31.60;;;20.33;;
24619;SDS011;12763;55.802;37.404;2022-07-06T04:09:32;26.38;;;19.10;;
24619;SDS011;12763;55.802;37.404;2022-07-06T04:12:13;28.13;;;19.42;;
24619;SDS011;12763;55.802;37.404;2022-07-06T04:14:43;28.88;;;20.85;;
24619;SDS011;12763;55.802;37.404;2022-07-06T04:17:12;30.33;;;22.10;;
24619;SDS011;12763;55.802;37.404;2022-07-06T04:20:27;25.40;;;19.10;;
24619;SDS011;12763;55.802;37.404;2022-07-06T04:22:55;25.10;;;18.40;;
24619;SDS011;12763;55.802;37.404;2022-07-06T04:25:23;36.33;;;24.58;;
24619;SDS011;12763;55.802;37.404;2022-07-06T04:28:08;38.35;;;22.30;;
24619;SDS011;12763;55.802;37.404;2022-07-06T04:30:50;27.48;;;18.63;;
24619;SDS011;12763;55.802;37.404;2022-07-06T04:33:39;33.83;;;19.67;;
24619;SDS011;12763;55.802;37.404;2022-07-06T04:36:11;26.27;;;18.95;;
24619;SDS011;12763;55.802;37.404;2022-07-06T04:38:47;28.42;;;20.45;;
24619;SDS011;12763;55.802;37.404;2022-07-06T04:42:09;25.35;;;19.15;;
24619;SDS011;12763;55.802;37.404;2022-07-06T04:44:54;29.00;;;19.80;;
24619;SDS011;12763;55.802;37.404;2022-07-06T04:47:26;27.65;;;20.17;;
24619;SDS011;12763;55.802;37.404;2022-07-06T04:54:07;22.90;;;16.75;;
24619;SDS011;12763;55.802;37.404;2022-07-06T04:56:40;26.35;;;18.52;;
24619;SDS011;12763;55.802;37.404;2022-07-06T04:59:16;19.55;;;15.60;;
24619;SDS011;12763;55.802;37.404;2022-07-06T05:07:56;25.42;;;19.15;;
24619;SDS011;12763;55.802;37.404;2022-07-06T05:13:31;24.55;;;16.90;;
24619;SDS011;12763;55.802;37.404;2022-07-06T05:16:03;18.65;;;14.05;;
24619;SDS011;12763;55.802;37.404;2022-07-06T05:18:36;19.50;;;15.10;;
24619;SDS011;12763;55.802;37.404;2022-07-06T05:21:07;24.45;;;16.45;;
24619;SDS011;12763;55.802;37.404;2022-07-06T05:23:36;17.75;;;13.77;;
24619;SDS011;12763;55.802;37.404;2022-07-06T05:26:06;21.55;;;15.07;;
24619;SDS011;12763;55.802;37.404;2022-07-06T05:28:36;25.17;;;17.83;;
24619;SDS011;12763;55.802;37.404;2022-07-06T05:31:04;27.00;;;18.92;;
24619;SDS011;12763;55.802;37.404;2022-07-06T05:33:43;19.45;;;15.52;;
24619;SDS011;12763;55.802;37.404;2022-07-06T05:39:25;25.70;;;20.33;;
24619;SDS011;12763;55.802;37.404;2022-07-06T05:41:57;25.17;;;17.73;;
24619;SDS011;12763;55.802;37.404;2022-07-06T05:44:23;18.98;;;15.05;;
24619;SDS011;12763;55.802;37.404;2022-07-06T05:46:50;25.65;;;17.27;;
24619;SDS011;12763;55.802;37.404;2022-07-06T05:49:17;23.63;;;18.83;;
24619;SDS011;12763;55.802;37.404;2022-07-06T05:52:10;29.17;;;19.88;;
24619;SDS011;12763;55.802;37.404;2022-07-06T05:58:31;25.98;;;19.25;;
24619;SDS011;12763;55.802;37.404;2022-07-06T06:00:59;25.90;;;19.50;;
24619;SDS011;12763;55.802;37.404;2022-07-06T06:03:25;26.67;;;18.63;;
24619;SDS011;12763;55.802;37.404;2022-07-06T06:05:51;27.35;;;17.52;;
24619;SDS011;12763;55.802;37.404;2022-07-06T06:08:22;22.95;;;17.50;;
24619;SDS011;12763;55.802;37.404;2022-07-06T06:10:51;23.35;;;17.30;;
24619;SDS011;12763;55.802;37.404;2022-07-06T06:13:20;20.30;;;15.18;;
24619;SDS011;12763;55.802;37.404;2022-07-06T06:15:50;16.42;;;13.23;;
24619;SDS011;12763;55.802;37.404;2022-07-06T06:18:16;19.13;;;15.20;;
24619;SDS011;12763;55.802;37.404;2022-07-06T06:20:44;17.83;;;12.82;;
24619;SDS011;12763;55.802;37.404;2022-07-06T06:23:11;10.70;;;9.30;;
24619;SDS011;12763;55.802;37.404;2022-07-06T06:25:38;17.33;;;10.13;;
24619;SDS011;12763;55.802;37.404;2022-07-06T06:28:05;12.35;;;9.05;;
24619;SDS011;12763;55.802;37.404;2022-07-06T06:30:33;13.98;;;10.45;;
24619;SDS011;12763;55.802;37.404;2022-07-06T06:33:06;11.40;;;9.07;;
24619;SDS011;12763;55.802;37.404;2022-07-06T06:35:44;14.18;;;10.13;;
24619;SDS011;12763;55.802;37.404;2022-07-06T06:38:11;12.13;;;9.05;;
24619;SDS011;12763;55.802;37.404;2022-07-06T06:40:38;12.18;;;8.02;;
24619;SDS011;12763;55.802;37.404;2022-07-06T06:43:04;12.13;;;9.88;;
24619;SDS011;12763;55.802;37.404;2022-07-06T06:45:33;13.07;;;10.07;;
24619;SDS011;12763;55.802;37.404;2022-07-06T06:48:03;11.55;;;9.80;;
24619;SDS011;12763;55.802;37.404;2022-07-06T06:50:29;10.95;;;9.70;;
24619;SDS011;12763;55.802;37.404;2022-07-06T06:52:57;12.95;;;9.38;;
24619;SDS011;12763;55.802;37.404;2022-07-06T06:55:23;10.85;;;9.23;;
24619;SDS011;12763;55.802;37.404;2022-07-06T06:57:49;11.40;;;10.20;;
24619;SDS011;12763;55.802;37.404;2022-07-06T07:00:16;11.70;;;9.27;;
24619;SDS011;12763;55.802;37.404;2022-07-06T07:02:42;12.00;;;9.15;;
24619;SDS011;12763;55.802;37.404;2022-07-06T07:05:08;16.48;;;9.98;;
24619;SDS011;12763;55.802;37.404;2022-07-06T07:07:34;11.88;;;8.85;;
24619;SDS011;12763;55.802;37.404;2022-07-06T07:10:02;17.05;;;9.27;;
24619;SDS011;12763;55.802;37.404;2022-07-06T07:12:29;12.27;;;9.60;;
24619;SDS011;12763;55.802;37.404;2022-07-06T07:14:55;11.70;;;8.82;;
24619;SDS011;12763;55.802;37.404;2022-07-06T07:17:22;13.75;;;10.27;;
24619;SDS011;12763;55.802;37.404;2022-07-06T07:19:48;11.43;;;9.40;;
24619;SDS011;12763;55.802;37.404;2022-07-06T07:22:14;12.93;;;11.07;;
24619;SDS011;12763;55.802;37.404;2022-07-06T07:24:40;13.18;;;11.00;;
24619;SDS011;12763;55.802;37.404;2022-07-06T07:27:05;12.10;;;10.50;;
24619;SDS011;12763;55.802;37.404;2022-07-06T07:29:31;14.20;;;10.98;;
24619;SDS011;12763;55.802;37.404;2022-07-06T07:31:58;14.25;;;10.00;;
24619;SDS011;12763;55.802;37.404;2022-07-06T07:34:24;12.23;;;10.10;;
24619;SDS011;12763;55.802;37.404;2022-07-06T07:36:50;14.15;;;10.85;;
24619;SDS011;12763;55.802;37.404;2022-07-06T07:39:16;13.95;;;10.95;;
24619;SDS011;12763;55.802;37.404;2022-07-06T07:41:42;12.30;;;10.57;;
24619;SDS011;12763;55.802;37.404;2022-07-06T07:44:08;12.25;;;10.35;;
24619;SDS011;12763;55.802;37.404;2022-07-06T07:46:34;11.60;;;10.27;;
24619;SDS011;12763;55.802;37.404;2022-07-06T07:49:00;12.30;;;10.23;;
24619;SDS011;12763;55.802;37.404;2022-07-06T07:51:28;14.65;;;11.70;;
24619;SDS011;12763;55.802;37.404;2022-07-06T07:53:54;15.95;;;10.60;;
24619;SDS011;12763;55.802;37.404;2022-07-06T07:56:20;15.27;;;12.50;;
24619;SDS011;12763;55.802;37.404;2022-07-06T07:58:46;16.02;;;11.70;;
24619;SDS011;12763;55.802;37.404;2022-07-06T08:01:17;15.68;;;13.15;;
24619;SDS011;12763;55.802;37.404;2022-07-06T08:03:43;14.32;;;11.30;;
24619;SDS011;12763;55.802;37.404;2022-07-06T08:06:09;15.25;;;11.70;;
24619;SDS011;12763;55.802;37.404;2022-07-06T08:08:36;13.93;;;11.73;;
24619;SDS011;12763;55.802;37.404;2022-07-06T08:11:02;14.48;;;12.52;;
24619;SDS011;12763;55.802;37.404;2022-07-06T08:13:28;14.93;;;12.52;;
24619;SDS011;12763;55.802;37.404;2022-07-06T08:15:54;20.25;;;13.23;;
24619;SDS011;12763;55.802;37.404;2022-07-06T08:18:20;18.67;;;13.68;;
24619;SDS011;12763;55.802;37.404;2022-07-06T08:20:47;17.25;;;13.95;;
24619;SDS011;12763;55.802;37.404;2022-07-06T08:23:13;17.00;;;12.65;;
24619;SDS011;12763;55.802;37.404;2022-07-06T08:25:39;14.57;;;12.02;;
24619;SDS011;12763;55.802;37.404;2022-07-06T08:28:05;15.07;;;12.57;;
24619;SDS011;12763;55.802;37.404;2022-07-06T08:30:31;15.75;;;12.50;;
24619;SDS011;12763;55.802;37.404;2022-07-06T08:33:00;16.85;;;12.25;;
24619;SDS011;12763;55.802;37.404;2022-07-06T08:35:27;15.45;;;11.38;;
24619;SDS011;12763;55.802;37.404;2022-07-06T08:37:53;16.02;;;12.35;;
24619;SDS011;12763;55.802;37.404;2022-07-06T08:40:19;15.82;;;11.10;;
24619;SDS011;12763;55.802;37.404;2022-07-06T08:42:45;14.25;;;10.98;;
24619;SDS011;12763;55.802;37.404;2022-07-06T08:45:13;19.27;;;12.80;;
24619;SDS011;12763;55.802;37.404;2022-07-06T08:47:42;16.63;;;11.77;;
24619;SDS011;12763;55.802;37.404;2022-07-06T08:50:08;13.65;;;11.35;;
24619;SDS011;12763;55.802;37.404;2022-07-06T08:52:35;14.05;;;11.00;;
24619;SDS011;12763;55.802;37.404;2022-07-06T08:55:03;16.55;;;10.82;;
24619;SDS011;12763;55.802;37.404;2022-07-06T08:57:29;15.90;;;10.52;;
24619;SDS011;12763;55.802;37.404;2022-07-06T08:59:55;15.73;;;11.60;;
24619;SDS011;12763;55.802;37.404;2022-07-06T09:02:24;16.98;;;12.13;;
24619;SDS011;12763;55.802;37.404;2022-07-06T09:04:56;14.00;;;11.65;;
24619;SDS011;12763;55.802;37.404;2022-07-06T09:07:25;16.52;;;12.50;;
24619;SDS011;12763;55.802;37.404;2022-07-06T09:09:54;13.90;;;11.95;;
24619;SDS011;12763;55.802;37.404;2022-07-06T09:12:21;14.00;;;11.27;;
24619;SDS011;12763;55.802;37.404;2022-07-06T09:14:48;17.10;;;12.48;;
24619;SDS011;12763;55.802;37.404;2022-07-06T09:17:14;15.30;;;11.55;;
24619;SDS011;12763;55.802;37.404;2022-07-06T09:19:40;13.40;;;11.52;;
24619;SDS011;12763;55.802;37.404;2022-07-06T09:22:09;16.05;;;12.60;;
24619;SDS011;12763;55.802;37.404;2022-07-06T09:24:37;16.80;;;13.45;;
24619;SDS011;12763;55.802;37.404;2022-07-06T09:27:14;16.08;;;12.38;;
24619;SDS011;12763;55.802;37.404;2022-07-06T09:29:41;16.33;;;13.13;;
24619;SDS011;12763;55.802;37.404;2022-07-06T09:32:07;15.93;;;13.20;;
24619;SDS011;12763;55.802;37.404;2022-07-06T09:34:40;14.60;;;12.88;;
24619;SDS011;12763;55.802;37.404;2022-07-06T09:37:07;16.67;;;12.38;;
24619;SDS011;12763;55.802;37.404;2022-07-06T09:39:35;16.75;;;12.20;;
24619;SDS011;12763;55.802;37.404;2022-07-06T09:42:02;18.48;;;12.90;;
24619;SDS011;12763;55.802;37.404;2022-07-06T09:44:30;15.90;;;12.07;;
24619;SDS011;12763;55.802;37.404;2022-07-06T09:47:01;15.57;;;12.65;;
24619;SDS011;12763;55.802;37.404;2022-07-06T09:49:29;16.45;;;12.20;;
24619;SDS011;12763;55.802;37.404;2022-07-06T09:51:59;15.15;;;13.00;;
24619;SDS011;12763;55.802;37.404;2022-07-06T09:54:27;14.60;;;12.55;;
24619;SDS011;12763;55.802;37.404;2022-07-06T09:56:54;15.27;;;11.98;;
24619;SDS011;12763;55.802;37.404;2022-07-06T09:59:25;13.02;;;11.68;;
24619;SDS011;12763;55.802;37.404;2022-07-06T10:01:53;16.25;;;11.93;;
24619;SDS011;12763;55.802;37.404;2022-07-06T10:04:22;15.63;;;11.40;;
24619;SDS011;12763;55.802;37.404;2022-07-06T10:06:50;16.85;;;11.50;;
24619;SDS011;12763;55.802;37.404;2022-07-06T10:09:18;13.55;;;11.82;;
24619;SDS011;12763;55.802;37.404;2022-07-06T10:11:49;15.20;;;12.15;;
24619;SDS011;12763;55.802;37.404;2022-07-06T10:14:26;16.63;;;13.27;;
24619;SDS011;12763;55.802;37.404;2022-07-06T10:16:57;19.13;;;12.65;;
24619;SDS011;12763;55.802;37.404;2022-07-06T10:19:26;16.58;;;13.20;;
24619;SDS011;12763;55.802;37.404;2022-07-06T10:21:53;16.25;;;13.10;;
24619;SDS011;12763;55.802;37.404;2022-07-06T10:24:20;15.95;;;12.73;;
24619;SDS011;12763;55.802;37.404;2022-07-06T10:26:46;17.50;;;12.70;;
24619;SDS011;12763;55.802;37.404;2022-07-06T10:29:19;15.32;;;13.02;;
24619;SDS011;12763;55.802;37.404;2022-07-06T10:31:47;14.40;;;12.90;;
24619;SDS011;12763;55.802;37.404;2022-07-06T10:34:17;15.23;;;12.00;;
24619;SDS011;12763;55.802;37.404;2022-07-06T10:36:48;13.23;;;11.38;;
24619;SDS011;12763;55.802;37.404;2022-07-06T10:39:16;12.60;;;11.30;;
24619;SDS011;12763;55.802;37.404;2022-07-06T10:42:59;14.13;;;10.73;;
24619;SDS011;12763;55.802;37.404;2022-07-06T10:45:49;14.85;;;10.07;;
24619;SDS011;12763;55.802;37.404;2022-07-06T10:49:34;12.95;;;10.40;;
24619;SDS011;12763;55.802;37.404;2022-07-06T10:52:51;15.48;;;11.48;;
24619;SDS011;12763;55.802;37.404;2022-07-06T11:01:28;11.20;;;9.68;;
24619;SDS011;12763;55.802;37.404;2022-07-06T11:04:08;11.77;;;10.25;;
24619;SDS011;12763;55.802;37.404;2022-07-06T11:06:35;12.85;;;10.40;;
24619;SDS011;12763;55.802;37.404;2022-07-06T11:09:09;12.82;;;10.65;;
24619;SDS011;12763;55.802;37.404;2022-07-06T11:15:09;11.38;;;9.75;;
24619;SDS011;12763;55.802;37.404;2022-07-06T11:17:35;12.68;;;9.43;;
24619;SDS011;12763;55.802;37.404;2022-07-06T11:20:10;13.32;;;9.32;;
24619;SDS011;12763;55.802;37.404;2022-07-06T11:22:37;11.02;;;8.52;;
24619;SDS011;12763;55.802;37.404;2022-07-06T11:25:10;11.25;;;8.93;;
24619;SDS011;12763;55.802;37.404;2022-07-06T11:28:11;10.95;;;9.25;;
24619;SDS011;12763;55.802;37.404;2022-07-06T11:36:26;16.08;;;10.43;;
24619;SDS011;12763;55.802;37.404;2022-07-06T11:39:01;20.02;;;10.70;;
24619;SDS011;12763;55.802;37.404;2022-07-06T11:44:55;11.10;;;9.77;;
24619;SDS011;12763;55.802;37.404;2022-07-06T11:47:30;11.10;;;8.70;;
24619;SDS011;12763;55.802;37.404;2022-07-06T11:52:46;9.43;;;8.48;;
24619;SDS011;12763;55.802;37.404;2022-07-06T11:55:30;9.55;;;8.38;;
24619;SDS011;12763;55.802;37.404;2022-07-06T11:58:02;8.48;;;7.57;;
24619;SDS011;12763;55.802;37.404;2022-07-06T12:00:37;8.52;;;7.60;;
24619;SDS011;12763;55.802;37.404;2022-07-06T12:03:03;9.15;;;8.23;;
24619;SDS011;12763;55.802;37.404;2022-07-06T12:11:28;9.88;;;8.27;;
24619;SDS011;12763;55.802;37.404;2022-07-06T12:18:18;10.43;;;7.53;;
24619;SDS011;12763;55.802;37.404;2022-07-06T12:20:52;8.10;;;7.30;;
24619;SDS011;12763;55.802;37.404;2022-07-06T12:36:18;12.10;;;8.13;;
24619;SDS011;12763;55.802;37.404;2022-07-06T12:41:35;8.93;;;7.70;;
24619;SDS011;12763;55.802;37.404;2022-07-06T12:44:08;11.43;;;8.40;;
24619;SDS011;12763;55.802;37.404;2022-07-06T12:46:38;9.10;;;7.75;;
24619;SDS011;12763;55.802;37.404;2022-07-06T12:49:19;8.73;;;7.80;;
24619;SDS011;12763;55.802;37.404;2022-07-06T12:55:01;10.27;;;8.10;;
24619;SDS011;12763;55.802;37.404;2022-07-06T13:04:14;6.63;;;5.90;;
24619;SDS011;12763;55.802;37.404;2022-07-06T13:06:46;7.18;;;6.47;;
24619;SDS011;12763;55.802;37.404;2022-07-06T13:09:12;7.85;;;6.80;;
24619;SDS011;12763;55.802;37.404;2022-07-06T13:12:12;9.25;;;6.90;;
24619;SDS011;12763;55.802;37.404;2022-07-06T13:14:38;7.57;;;6.65;;
24619;SDS011;12763;55.802;37.404;2022-07-06T13:17:16;7.50;;;6.65;;
24619;SDS011;12763;55.802;37.404;2022-07-06T13:23:16;8.50;;;7.30;;
24619;SDS011;12763;55.802;37.404;2022-07-06T13:29:09;7.45;;;6.35;;
24619;SDS011;12763;55.802;37.404;2022-07-06T13:31:54;9.10;;;6.50;;
24619;SDS011;12763;55.802;37.404;2022-07-06T13:34:20;7.30;;;6.55;;
24619;SDS011;12763;55.802;37.404;2022-07-06T13:36:49;8.57;;;6.97;;
24619;SDS011;12763;55.802;37.404;2022-07-06T13:39:16;10.77;;;7.40;;
24619;SDS011;12763;55.802;37.404;2022-07-06T13:41:48;6.50;;;5.85;;
24619;SDS011;12763;55.802;37.404;2022-07-06T13:44:13;8.70;;;6.95;;
24619;SDS011;12763;55.802;37.404;2022-07-06T13:46:40;9.15;;;6.57;;
24619;SDS011;12763;55.802;37.404;2022-07-06T13:49:18;9.07;;;6.93;;
24619;SDS011;12763;55.802;37.404;2022-07-06T13:51:44;7.22;;;6.50;;
24619;SDS011;12763;55.802;37.404;2022-07-06T13:57:19;7.35;;;6.65;;
24619;SDS011;12763;55.802;37.404;2022-07-06T13:59:50;10.68;;;7.00;;
24619;SDS011;12763;55.802;37.404;2022-07-06T14:02:35;8.88;;;6.15;;
24619;SDS011;12763;55.802;37.404;2022-07-06T14:05:09;12.33;;;6.93;;
24619;SDS011;12763;55.802;37.404;2022-07-06T14:07:35;11.68;;;8.18;;
24619;SDS011;12763;55.802;37.404;2022-07-06T14:10:02;7.85;;;6.30;;
24619;SDS011;12763;55.802;37.404;2022-07-06T14:12:28;8.40;;;6.70;;
24619;SDS011;12763;55.802;37.404;2022-07-06T14:14:55;7.40;;;6.57;;
24619;SDS011;12763;55.802;37.404;2022-07-06T14:20:58;10.48;;;8.20;;
24619;SDS011;12763;55.802;37.404;2022-07-06T14:23:25;13.27;;;8.93;;
24619;SDS011;12763;55.802;37.404;2022-07-06T14:26:10;14.40;;;9.95;;
24619;SDS011;12763;55.802;37.404;2022-07-06T14:28:36;12.60;;;10.57;;
24619;SDS011;12763;55.802;37.404;2022-07-06T14:31:11;15.82;;;10.13;;
24619;SDS011;12763;55.802;37.404;2022-07-06T14:33:37;15.18;;;11.55;;
24619;SDS011;12763;55.802;37.404;2022-07-06T14:38:59;18.00;;;11.55;;
24619;SDS011;12763;55.802;37.404;2022-07-06T14:41:44;13.52;;;12.00;;
24619;SDS011;12763;55.802;37.404;2022-07-06T14:44:15;14.48;;;11.52;;
24619;SDS011;12763;55.802;37.404;2022-07-06T14:46:56;13.68;;;11.68;;
24619;SDS011;12763;55.802;37.404;2022-07-06T14:49:28;13.23;;;11.10;;
24619;SDS011;12763;55.802;37.404;2022-07-06T14:54:45;19.15;;;11.70;;
24619;SDS011;12763;55.802;37.404;2022-07-06T14:57:11;13.68;;;11.68;;
24619;SDS011;12763;55.802;37.404;2022-07-06T15:02:37;14.52;;;11.65;;
24619;SDS011;12763;55.802;37.404;2022-07-06T15:05:04;12.75;;;10.70;;
24619;SDS011;12763;55.802;37.404;2022-07-06T15:07:42;11.38;;;10.27;;
24619;SDS011;12763;55.802;37.404;2022-07-06T15:10:08;12.25;;;10.15;;
24619;SDS011;12763;55.802;37.404;2022-07-06T15:12:36;11.23;;;10.02;;
24619;SDS011;12763;55.802;37.404;2022-07-06T15:18:07;10.57;;;9.45;;
24619;SDS011;12763;55.802;37.404;2022-07-06T15:20:36;11.02;;;9.18;;
24619;SDS011;12763;55.802;37.404;2022-07-06T15:23:11;12.00;;;10.70;;
24619;SDS011;12763;55.802;37.404;2022-07-06T15:25:40;14.52;;;9.95;;
24619;SDS011;12763;55.802;37.404;2022-07-06T15:28:06;19.85;;;10.43;;
24619;SDS011;12763;55.802;37.404;2022-07-06T15:30:41;16.98;;;10.90;;
24619;SDS011;12763;55.802;37.404;2022-07-06T15:33:07;11.02;;;9.82;;
24619;SDS011;12763;55.802;37.404;2022-07-06T15:35:39;12.25;;;10.13;;
24619;SDS011;12763;55.802;37.404;2022-07-06T15:38:08;13.52;;;10.23;;
24619;SDS011;12763;55.802;37.404;2022-07-06T15:40:46;13.15;;;10.95;;
24619;SDS011;12763;55.802;37.404;2022-07-06T15:43:26;12.05;;;9.57;;
24619;SDS011;12763;55.802;37.404;2022-07-06T15:51:36;12.38;;;9.63;;
24619;SDS011;12763;55.802;37.404;2022-07-06T15:54:14;16.58;;;9.80;;
24619;SDS011;12763;55.802;37.404;2022-07-06T15:56:40;10.45;;;8.55;;
24619;SDS011;12763;55.802;37.404;2022-07-06T15:59:09;11.90;;;9.85;;
24619;SDS011;12763;55.802;37.404;2022-07-06T16:01:41;16.42;;;9.55;;
24619;SDS011;12763;55.802;37.404;2022-07-06T16:04:07;13.88;;;9.68;;
24619;SDS011;12763;55.802;37.404;2022-07-06T16:06:34;10.30;;;9.20;;
24619;SDS011;12763;55.802;37.404;2022-07-06T16:11:54;16.45;;;10.68;;
24619;SDS011;12763;55.802;37.404;2022-07-06T16:17:08;13.95;;;11.48;;
24619;SDS011;12763;55.802;37.404;2022-07-06T16:19:39;11.70;;;10.25;;
24619;SDS011;12763;55.802;37.404;2022-07-06T16:22:05;13.85;;;10.95;;
24619;SDS011;12763;55.802;37.404;2022-07-06T16:24:31;14.60;;;11.38;;
24619;SDS011;12763;55.802;37.404;2022-07-06T16:26:57;15.70;;;11.90;;
24619;SDS011;12763;55.802;37.404;2022-07-06T16:29:32;14.57;;;11.43;;
24619;SDS011;12763;55.802;37.404;2022-07-06T16:31:58;14.52;;;11.27;;
24619;SDS011;12763;55.802;37.404;2022-07-06T16:37:21;14.23;;;10.50;;
24619;SDS011;12763;55.802;37.404;2022-07-06T16:39:47;15.43;;;10.27;;
24619;SDS011;12763;55.802;37.404;2022-07-06T16:42:13;12.30;;;9.93;;
24619;SDS011;12763;55.802;37.404;2022-07-06T16:44:39;12.77;;;9.82;;
24619;SDS011;12763;55.802;37.404;2022-07-06T16:47:05;10.23;;;9.18;;
24619;SDS011;12763;55.802;37.404;2022-07-06T16:49:31;11.40;;;8.75;;
24619;SDS011;12763;55.802;37.404;2022-07-06T16:52:03;12.38;;;8.27;;
24619;SDS011;12763;55.802;37.404;2022-07-06T16:54:30;9.82;;;7.85;;
24619;SDS011;12763;55.802;37.404;2022-07-06T16:57:05;9.38;;;7.22;;
24619;SDS011;12763;55.802;37.404;2022-07-06T16:59:36;10.82;;;6.88;;
24619;SDS011;12763;55.802;37.404;2022-07-06T17:02:02;9.13;;;6.03;;
24619;SDS011;12763;55.802;37.404;2022-07-06T17:04:29;8.40;;;5.65;;
24619;SDS011;12763;55.802;37.404;2022-07-06T17:07:06;10.73;;;5.43;;
24619;SDS011;12763;55.802;37.404;2022-07-06T17:09:35;8.60;;;5.18;;
24619;SDS011;12763;55.802;37.404;2022-07-06T17:12:08;6.85;;;4.70;;
24619;SDS011;12763;55.802;37.404;2022-07-06T17:14:36;6.30;;;5.28;;
24619;SDS011;12763;55.802;37.404;2022-07-06T17:17:06;6.10;;;4.50;;
24619;SDS011;12763;55.802;37.404;2022-07-06T17:19:38;8.80;;;5.03;;
24619;SDS011;12763;55.802;37.404;2022-07-06T17:22:04;6.78;;;4.60;;